sensor_id;sensor_type;location;lat;lon;timestamp;P1;durP1;ratioP1;P2;durP2;ratioP2
3667;SDS011;24099;47.102;15.440;2022-08-21T00:00:55;0.00;;;0.00;;
3667;SDS011;24099;47.102;15.440;2022-08-21T00:03:22;0.10;;;0.10;;
3667;SDS011;24099;47.102;15.440;2022-08-21T00:05:50;0.10;;;0.10;;
3667;SDS011;24099;47.102;15.440;2022-08-21T00:08:18;0.10;;;0.10;;
3667;SDS011;24099;47.102;15.440;2022-08-21T00:10:47;0.08;;;0.08;;
3667;SDS011;24099;47.102;15.440;2022-08-21T00:13:16;2.92;;;0.60;;
3667;SDS011;24099;47.102;15.440;2022-08-21T00:15:46;0.10;;;0.10;;
3667;SDS011;24099;47.102;15.440;2022-08-21T00:18:16;0.20;;;0.20;;
3667;SDS011;24099;47.102;15.440;2022-08-21T00:20:45;0.20;;;0.20;;
3667;SDS011;24099;47.102;15.440;2022-08-21T00:23:14;0.20;;;0.20;;
3667;SDS011;24099;47.102;15.440;2022-08-21T00:25:42;0.80;;;0.45;;
3667;SDS011;24099;47.102;15.440;2022-08-21T00:28:10;0.10;;;0.10;;
3667;SDS011;24099;47.102;15.440;2022-08-21T00:30:39;0.20;;;0.20;;
3667;SDS011;24099;47.102;15.440;2022-08-21T00:33:07;0.10;;;0.10;;
3667;SDS011;24099;47.102;15.440;2022-08-21T00:35:38;0.10;;;0.10;;
3667;SDS011;24099;47.102;15.440;2022-08-21T00:38:08;0.43;;;0.20;;
3667;SDS011;24099;47.102;15.440;2022-08-21T00:40:36;0.20;;;0.20;;
3667;SDS011;24099;47.102;15.440;2022-08-21T00:43:08;0.20;;;0.20;;
3667;SDS011;24099;47.102;15.440;2022-08-21T00:45:39;0.17;;;0.17;;
3667;SDS011;24099;47.102;15.440;2022-08-21T00:48:07;0.10;;;0.10;;
3667;SDS011;24099;47.102;15.440;2022-08-21T00:50:35;0.10;;;0.10;;
3667;SDS011;24099;47.102;15.440;2022-08-21T00:53:10;0.13;;;0.13;;
3667;SDS011;24099;47.102;15.440;2022-08-21T00:55:39;0.20;;;0.20;;
3667;SDS011;24099;47.102;15.440;2022-08-21T00:58:08;0.15;;;0.15;;
3667;SDS011;24099;47.102;15.440;2022-08-21T01:00:39;0.20;;;0.20;;
3667;SDS011;24099;47.102;15.440;2022-08-21T01:03:10;0.15;;;0.15;;
3667;SDS011;24099;47.102;15.440;2022-08-21T01:05:43;0.20;;;0.20;;
3667;SDS011;24099;47.102;15.440;2022-08-21T01:08:11;0.10;;;0.10;;
3667;SDS011;24099;47.102;15.440;2022-08-21T01:10:40;0.20;;;0.20;;
3667;SDS011;24099;47.102;15.440;2022-08-21T01:13:09;0.20;;;0.20;;
3667;SDS011;24099;47.102;15.440;2022-08-21T01:15:42;2.47;;;0.30;;
3667;SDS011;24099;47.102;15.440;2022-08-21T01:18:14;0.20;;;0.20;;
3667;SDS011;24099;47.102;15.440;2022-08-21T01:23:27;0.17;;;0.17;;
3667;SDS011;24099;47.102;15.440;2022-08-21T01:25:55;0.17;;;0.17;;
3667;SDS011;24099;47.102;15.440;2022-08-21T01:28:22;0.10;;;0.10;;
3667;SDS011;24099;47.102;15.440;2022-08-21T01:30:50;0.10;;;0.10;;
3667;SDS011;24099;47.102;15.440;2022-08-21T01:33:20;0.15;;;0.15;;
3667;SDS011;24099;47.102;15.440;2022-08-21T01:35:50;0.20;;;0.20;;
3667;SDS011;24099;47.102;15.440;2022-08-21T01:38:19;0.28;;;0.28;;
3667;SDS011;24099;47.102;15.440;2022-08-21T01:40:47;0.20;;;0.20;;
3667;SDS011;24099;47.102;15.440;2022-08-21T01:43:14;0.10;;;0.10;;
3667;SDS011;24099;47.102;15.440;2022-08-21T01:45:42;0.20;;;0.20;;
3667;SDS011;24099;47.102;15.440;2022-08-21T01:48:10;0.10;;;0.10;;
3667;SDS011;24099;47.102;15.440;2022-08-21T01:50:37;0.20;;;0.20;;
3667;SDS011;24099;47.102;15.440;2022-08-21T01:53:05;0.20;;;0.20;;
3667;SDS011;24099;47.102;15.440;2022-08-21T01:55:34;0.25;;;0.25;;
3667;SDS011;24099;47.102;15.440;2022-08-21T01:58:01;0.10;;;0.10;;
3667;SDS011;24099;47.102;15.440;2022-08-21T02:00:29;1.75;;;0.20;;
3667;SDS011;24099;47.102;15.440;2022-08-21T02:02:56;0.22;;;0.22;;
3667;SDS011;24099;47.102;15.440;2022-08-21T02:05:25;0.22;;;0.22;;
3667;SDS011;24099;47.102;15.440;2022-08-21T02:07:53;0.20;;;0.20;;
3667;SDS011;24099;47.102;15.440;2022-08-21T02:10:23;0.68;;;0.20;;
3667;SDS011;24099;47.102;15.440;2022-08-21T02:12:55;0.10;;;0.10;;
3667;SDS011;24099;47.102;15.440;2022-08-21T02:15:23;0.38;;;0.25;;
3667;SDS011;24099;47.102;15.440;2022-08-21T02:17:53;0.10;;;0.10;;
3667;SDS011;24099;47.102;15.440;2022-08-21T02:20:25;0.17;;;0.17;;
3667;SDS011;24099;47.102;15.440;2022-08-21T02:22:56;0.22;;;0.22;;
3667;SDS011;24099;47.102;15.440;2022-08-21T02:25:25;0.10;;;0.10;;
3667;SDS011;24099;47.102;15.440;2022-08-21T02:27:56;0.45;;;0.20;;
3667;SDS011;24099;47.102;15.440;2022-08-21T02:30:27;0.13;;;0.13;;
3667;SDS011;24099;47.102;15.440;2022-08-21T02:32:58;0.20;;;0.20;;
3667;SDS011;24099;47.102;15.440;2022-08-21T02:35:27;0.13;;;0.13;;
3667;SDS011;24099;47.102;15.440;2022-08-21T02:37:55;0.30;;;0.20;;
3667;SDS011;24099;47.102;15.440;2022-08-21T02:40:26;0.45;;;0.30;;
3667;SDS011;24099;47.102;15.440;2022-08-21T02:42:57;0.20;;;0.20;;
3667;SDS011;24099;47.102;15.440;2022-08-21T02:45:26;0.20;;;0.20;;
3667;SDS011;24099;47.102;15.440;2022-08-21T02:47:55;0.20;;;0.20;;
3667;SDS011;24099;47.102;15.440;2022-08-21T02:50:26;0.20;;;0.20;;
3667;SDS011;24099;47.102;15.440;2022-08-21T02:52:57;0.38;;;0.38;;
3667;SDS011;24099;47.102;15.440;2022-08-21T02:55:25;0.10;;;0.10;;
3667;SDS011;24099;47.102;15.440;2022-08-21T02:57:58;0.32;;;0.32;;
3667;SDS011;24099;47.102;15.440;2022-08-21T03:00:26;0.20;;;0.20;;
3667;SDS011;24099;47.102;15.440;2022-08-21T03:02:58;0.20;;;0.20;;
3667;SDS011;24099;47.102;15.440;2022-08-21T03:05:26;0.10;;;0.10;;
3667;SDS011;24099;47.102;15.440;2022-08-21T03:07:57;0.20;;;0.20;;
3667;SDS011;24099;47.102;15.440;2022-08-21T03:10:25;0.30;;;0.30;;
3667;SDS011;24099;47.102;15.440;2022-08-21T03:12:54;0.20;;;0.20;;
3667;SDS011;24099;47.102;15.440;2022-08-21T03:15:23;0.28;;;0.28;;
3667;SDS011;24099;47.102;15.440;2022-08-21T03:17:51;0.30;;;0.30;;
3667;SDS011;24099;47.102;15.440;2022-08-21T03:20:20;0.20;;;0.20;;
3667;SDS011;24099;47.102;15.440;2022-08-21T03:22:51;0.20;;;0.20;;
3667;SDS011;24099;47.102;15.440;2022-08-21T03:25:19;0.40;;;0.40;;
3667;SDS011;24099;47.102;15.440;2022-08-21T03:27:49;0.20;;;0.20;;
3667;SDS011;24099;47.102;15.440;2022-08-21T03:30:17;0.20;;;0.20;;
3667;SDS011;24099;47.102;15.440;2022-08-21T03:32:49;0.10;;;0.10;;
3667;SDS011;24099;47.102;15.440;2022-08-21T03:35:17;0.20;;;0.20;;
3667;SDS011;24099;47.102;15.440;2022-08-21T03:37:46;0.30;;;0.30;;
3667;SDS011;24099;47.102;15.440;2022-08-21T03:40:15;0.20;;;0.10;;
3667;SDS011;24099;47.102;15.440;2022-08-21T03:42:45;0.40;;;0.40;;
3667;SDS011;24099;47.102;15.440;2022-08-21T03:45:14;0.10;;;0.10;;
3667;SDS011;24099;47.102;15.440;2022-08-21T03:47:52;0.43;;;0.25;;
3667;SDS011;24099;47.102;15.440;2022-08-21T03:50:22;0.10;;;0.10;;
3667;SDS011;24099;47.102;15.440;2022-08-21T03:52:51;1.38;;;0.68;;
3667;SDS011;24099;47.102;15.440;2022-08-21T03:55:19;0.20;;;0.20;;
3667;SDS011;24099;47.102;15.440;2022-08-21T03:57:47;0.20;;;0.20;;
3667;SDS011;24099;47.102;15.440;2022-08-21T04:00:15;0.25;;;0.25;;
3667;SDS011;24099;47.102;15.440;2022-08-21T04:02:44;0.60;;;0.38;;
3667;SDS011;24099;47.102;15.440;2022-08-21T04:05:14;0.15;;;0.15;;
3667;SDS011;24099;47.102;15.440;2022-08-21T04:07:52;0.20;;;0.20;;
3667;SDS011;24099;47.102;15.440;2022-08-21T04:10:23;0.30;;;0.30;;
3667;SDS011;24099;47.102;15.440;2022-08-21T04:12:52;0.40;;;0.40;;
3667;SDS011;24099;47.102;15.440;2022-08-21T04:15:21;0.32;;;0.32;;
3667;SDS011;24099;47.102;15.440;2022-08-21T04:17:49;0.20;;;0.20;;
3667;SDS011;24099;47.102;15.440;2022-08-21T04:20:18;0.15;;;0.15;;
3667;SDS011;24099;47.102;15.440;2022-08-21T04:22:46;0.30;;;0.30;;
3667;SDS011;24099;47.102;15.440;2022-08-21T04:25:15;0.20;;;0.20;;
3667;SDS011;24099;47.102;15.440;2022-08-21T04:27:44;0.28;;;0.28;;
3667;SDS011;24099;47.102;15.440;2022-08-21T04:30:12;1.00;;;0.47;;
3667;SDS011;24099;47.102;15.440;2022-08-21T04:32:41;0.40;;;0.40;;
3667;SDS011;24099;47.102;15.440;2022-08-21T04:35:10;0.50;;;0.50;;
3667;SDS011;24099;47.102;15.440;2022-08-21T04:37:40;0.52;;;0.52;;
3667;SDS011;24099;47.102;15.440;2022-08-21T04:40:08;0.68;;;0.68;;
3667;SDS011;24099;47.102;15.440;2022-08-21T04:42:41;1.75;;;1.13;;
3667;SDS011;24099;47.102;15.440;2022-08-21T04:45:15;3.72;;;1.67;;
3667;SDS011;24099;47.102;15.440;2022-08-21T04:47:48;8.15;;;2.47;;
3667;SDS011;24099;47.102;15.440;2022-08-21T04:50:17;0.80;;;0.73;;
3667;SDS011;24099;47.102;15.440;2022-08-21T04:53:03;7.93;;;2.70;;
3667;SDS011;24099;47.102;15.440;2022-08-21T04:55:31;8.07;;;2.33;;
3667;SDS011;24099;47.102;15.440;2022-08-21T04:57:59;21.08;;;5.78;;
3667;SDS011;24099;47.102;15.440;2022-08-21T05:00:27;4.68;;;1.95;;
3667;SDS011;24099;47.102;15.440;2022-08-21T05:02:55;14.48;;;3.72;;
3667;SDS011;24099;47.102;15.440;2022-08-21T05:05:24;1.98;;;1.10;;
3667;SDS011;24099;47.102;15.440;2022-08-21T05:07:54;0.65;;;0.65;;
3667;SDS011;24099;47.102;15.440;2022-08-21T05:10:24;1.10;;;1.00;;
3667;SDS011;24099;47.102;15.440;2022-08-21T05:12:53;1.00;;;0.90;;
3667;SDS011;24099;47.102;15.440;2022-08-21T05:15:21;0.17;;;0.17;;
3667;SDS011;24099;47.102;15.440;2022-08-21T05:17:49;0.73;;;0.63;;
3667;SDS011;24099;47.102;15.440;2022-08-21T05:20:17;0.20;;;0.20;;
3667;SDS011;24099;47.102;15.440;2022-08-21T05:22:44;0.20;;;0.20;;
3667;SDS011;24099;47.102;15.440;2022-08-21T05:25:12;0.30;;;0.30;;
3667;SDS011;24099;47.102;15.440;2022-08-21T05:27:41;0.20;;;0.20;;
3667;SDS011;24099;47.102;15.440;2022-08-21T05:30:09;0.10;;;0.10;;
3667;SDS011;24099;47.102;15.440;2022-08-21T05:32:37;0.30;;;0.30;;
3667;SDS011;24099;47.102;15.440;2022-08-21T05:35:05;0.30;;;0.30;;
3667;SDS011;24099;47.102;15.440;2022-08-21T05:37:34;0.30;;;0.30;;
3667;SDS011;24099;47.102;15.440;2022-08-21T05:40:02;0.32;;;0.32;;
3667;SDS011;24099;47.102;15.440;2022-08-21T05:42:32;0.32;;;0.32;;
3667;SDS011;24099;47.102;15.440;2022-08-21T05:45:01;0.20;;;0.20;;
3667;SDS011;24099;47.102;15.440;2022-08-21T05:47:29;0.22;;;0.22;;
3667;SDS011;24099;47.102;15.440;2022-08-21T05:49:57;0.15;;;0.15;;
3667;SDS011;24099;47.102;15.440;2022-08-21T05:52:24;0.15;;;0.15;;
3667;SDS011;24099;47.102;15.440;2022-08-21T05:54:52;0.30;;;0.30;;
3667;SDS011;24099;47.102;15.440;2022-08-21T05:57:20;0.30;;;0.30;;
3667;SDS011;24099;47.102;15.440;2022-08-21T05:59:47;0.30;;;0.30;;
3667;SDS011;24099;47.102;15.440;2022-08-21T06:02:17;0.20;;;0.20;;
3667;SDS011;24099;47.102;15.440;2022-08-21T06:04:46;0.10;;;0.10;;
3667;SDS011;24099;47.102;15.440;2022-08-21T06:07:14;0.17;;;0.17;;
3667;SDS011;24099;47.102;15.440;2022-08-21T06:09:42;0.10;;;0.10;;
3667;SDS011;24099;47.102;15.440;2022-08-21T06:12:10;0.30;;;0.30;;
3667;SDS011;24099;47.102;15.440;2022-08-21T06:14:39;0.10;;;0.10;;
3667;SDS011;24099;47.102;15.440;2022-08-21T06:17:09;0.20;;;0.20;;
3667;SDS011;24099;47.102;15.440;2022-08-21T06:19:41;0.20;;;0.20;;
3667;SDS011;24099;47.102;15.440;2022-08-21T06:22:09;0.30;;;0.30;;
3667;SDS011;24099;47.102;15.440;2022-08-21T06:24:36;0.20;;;0.20;;
3667;SDS011;24099;47.102;15.440;2022-08-21T06:27:04;0.28;;;0.28;;
3667;SDS011;24099;47.102;15.440;2022-08-21T06:29:32;0.10;;;0.10;;
3667;SDS011;24099;47.102;15.440;2022-08-21T06:32:00;0.10;;;0.10;;
3667;SDS011;24099;47.102;15.440;2022-08-21T06:34:29;0.10;;;0.10;;
3667;SDS011;24099;47.102;15.440;2022-08-21T06:36:58;0.17;;;0.17;;
3667;SDS011;24099;47.102;15.440;2022-08-21T06:39:26;0.20;;;0.20;;
3667;SDS011;24099;47.102;15.440;2022-08-21T06:41:53;0.28;;;0.28;;
3667;SDS011;24099;47.102;15.440;2022-08-21T06:44:27;0.10;;;0.10;;
3667;SDS011;24099;47.102;15.440;2022-08-21T06:46:55;0.15;;;0.15;;
3667;SDS011;24099;47.102;15.440;2022-08-21T06:49:22;0.20;;;0.20;;
3667;SDS011;24099;47.102;15.440;2022-08-21T06:51:50;0.20;;;0.20;;
3667;SDS011;24099;47.102;15.440;2022-08-21T06:54:19;0.20;;;0.20;;
3667;SDS011;24099;47.102;15.440;2022-08-21T06:56:46;0.20;;;0.20;;
3667;SDS011;24099;47.102;15.440;2022-08-21T06:59:14;0.10;;;0.10;;
3667;SDS011;24099;47.102;15.440;2022-08-21T07:01:41;0.10;;;0.10;;
3667;SDS011;24099;47.102;15.440;2022-08-21T07:04:09;0.22;;;0.22;;
3667;SDS011;24099;47.102;15.440;2022-08-21T07:06:36;0.10;;;0.10;;
3667;SDS011;24099;47.102;15.440;2022-08-21T07:09:04;0.10;;;0.10;;
3667;SDS011;24099;47.102;15.440;2022-08-21T07:11:33;0.28;;;0.28;;
3667;SDS011;24099;47.102;15.440;2022-08-21T07:14:03;0.25;;;0.22;;
3667;SDS011;24099;47.102;15.440;2022-08-21T07:16:30;0.20;;;0.20;;
3667;SDS011;24099;47.102;15.440;2022-08-21T07:18:58;0.00;;;0.00;;
3667;SDS011;24099;47.102;15.440;2022-08-21T07:21:26;0.10;;;0.10;;
3667;SDS011;24099;47.102;15.440;2022-08-21T07:23:53;0.20;;;0.17;;
3667;SDS011;24099;47.102;15.440;2022-08-21T07:26:21;0.20;;;0.20;;
3667;SDS011;24099;47.102;15.440;2022-08-21T07:28:52;0.15;;;0.15;;
3667;SDS011;24099;47.102;15.440;2022-08-21T07:31:21;0.10;;;0.10;;
3667;SDS011;24099;47.102;15.440;2022-08-21T07:33:50;0.10;;;0.10;;
3667;SDS011;24099;47.102;15.440;2022-08-21T07:36:18;0.10;;;0.10;;
3667;SDS011;24099;47.102;15.440;2022-08-21T07:38:45;0.10;;;0.10;;
3667;SDS011;24099;47.102;15.440;2022-08-21T07:41:14;0.10;;;0.10;;
3667;SDS011;24099;47.102;15.440;2022-08-21T07:43:46;0.13;;;0.13;;
3667;SDS011;24099;47.102;15.440;2022-08-21T07:46:15;0.20;;;0.20;;
3667;SDS011;24099;47.102;15.440;2022-08-21T07:48:43;0.17;;;0.17;;
3667;SDS011;24099;47.102;15.440;2022-08-21T07:51:12;0.20;;;0.20;;
3667;SDS011;24099;47.102;15.440;2022-08-21T07:53:46;0.22;;;0.22;;
3667;SDS011;24099;47.102;15.440;2022-08-21T07:56:15;0.00;;;0.00;;
3667;SDS011;24099;47.102;15.440;2022-08-21T07:58:43;0.10;;;0.10;;
3667;SDS011;24099;47.102;15.440;2022-08-21T08:01:11;0.20;;;0.20;;
3667;SDS011;24099;47.102;15.440;2022-08-21T08:03:40;0.00;;;0.00;;
3667;SDS011;24099;47.102;15.440;2022-08-21T08:06:08;0.10;;;0.10;;
3667;SDS011;24099;47.102;15.440;2022-08-21T08:08:37;0.20;;;0.20;;
3667;SDS011;24099;47.102;15.440;2022-08-21T08:11:06;0.10;;;0.10;;
3667;SDS011;24099;47.102;15.440;2022-08-21T08:13:37;0.10;;;0.10;;
3667;SDS011;24099;47.102;15.440;2022-08-21T08:16:06;0.32;;;0.20;;
3667;SDS011;24099;47.102;15.440;2022-08-21T08:18:34;0.10;;;0.10;;
3667;SDS011;24099;47.102;15.440;2022-08-21T08:21:03;0.10;;;0.00;;
3667;SDS011;24099;47.102;15.440;2022-08-21T08:23:31;0.00;;;0.00;;
3667;SDS011;24099;47.102;15.440;2022-08-21T08:25:59;0.10;;;0.10;;
3667;SDS011;24099;47.102;15.440;2022-08-21T08:28:30;0.05;;;0.05;;
3667;SDS011;24099;47.102;15.440;2022-08-21T08:30:58;0.88;;;0.45;;
3667;SDS011;24099;47.102;15.440;2022-08-21T08:33:26;0.10;;;0.10;;
3667;SDS011;24099;47.102;15.440;2022-08-21T08:35:54;0.20;;;0.20;;
3667;SDS011;24099;47.102;15.440;2022-08-21T08:38:25;0.15;;;0.15;;
3667;SDS011;24099;47.102;15.440;2022-08-21T08:41:00;0.28;;;0.05;;
3667;SDS011;24099;47.102;15.440;2022-08-21T08:43:32;0.22;;;0.20;;
3667;SDS011;24099;47.102;15.440;2022-08-21T08:46:03;0.38;;;0.38;;
3667;SDS011;24099;47.102;15.440;2022-08-21T08:48:40;0.13;;;0.10;;
3667;SDS011;24099;47.102;15.440;2022-08-21T08:51:17;0.10;;;0.10;;
3667;SDS011;24099;47.102;15.440;2022-08-21T08:53:51;0.10;;;0.10;;
3667;SDS011;24099;47.102;15.440;2022-08-21T08:56:27;0.10;;;0.10;;
3667;SDS011;24099;47.102;15.440;2022-08-21T08:58:58;0.10;;;0.10;;
3667;SDS011;24099;47.102;15.440;2022-08-21T09:01:33;0.10;;;0.10;;
3667;SDS011;24099;47.102;15.440;2022-08-21T09:04:00;0.10;;;0.10;;
3667;SDS011;24099;47.102;15.440;2022-08-21T09:09:38;0.13;;;0.13;;
3667;SDS011;24099;47.102;15.440;2022-08-21T09:12:25;0.10;;;0.10;;
3667;SDS011;24099;47.102;15.440;2022-08-21T09:15:12;0.10;;;0.10;;
3667;SDS011;24099;47.102;15.440;2022-08-21T09:17:54;0.10;;;0.10;;
3667;SDS011;24099;47.102;15.440;2022-08-21T09:20:51;0.10;;;0.10;;
3667;SDS011;24099;47.102;15.440;2022-08-21T09:23:33;0.20;;;0.20;;
3667;SDS011;24099;47.102;15.440;2022-08-21T09:26:13;0.10;;;0.10;;
3667;SDS011;24099;47.102;15.440;2022-08-21T09:28:43;0.20;;;0.10;;
3667;SDS011;24099;47.102;15.440;2022-08-21T09:31:21;0.20;;;0.20;;
3667;SDS011;24099;47.102;15.440;2022-08-21T09:33:56;0.13;;;0.13;;
3667;SDS011;24099;47.102;15.440;2022-08-21T09:36:30;0.10;;;0.10;;
3667;SDS011;24099;47.102;15.440;2022-08-21T09:39:04;0.10;;;0.10;;
3667;SDS011;24099;47.102;15.440;2022-08-21T09:41:34;0.03;;;0.03;;
3667;SDS011;24099;47.102;15.440;2022-08-21T09:44:03;0.10;;;0.10;;
3667;SDS011;24099;47.102;15.440;2022-08-21T09:46:33;0.10;;;0.10;;
3667;SDS011;24099;47.102;15.440;2022-08-21T09:49:03;0.10;;;0.10;;
3667;SDS011;24099;47.102;15.440;2022-08-21T09:51:31;0.13;;;0.13;;
3667;SDS011;24099;47.102;15.440;2022-08-21T09:54:10;0.20;;;0.20;;
3667;SDS011;24099;47.102;15.440;2022-08-21T09:56:56;0.00;;;0.00;;
3667;SDS011;24099;47.102;15.440;2022-08-21T09:59:44;0.20;;;0.20;;
3667;SDS011;24099;47.102;15.440;2022-08-21T10:02:24;0.32;;;0.30;;
3667;SDS011;24099;47.102;15.440;2022-08-21T10:04:56;0.10;;;0.10;;
3667;SDS011;24099;47.102;15.440;2022-08-21T10:07:28;0.10;;;0.10;;
3667;SDS011;24099;47.102;15.440;2022-08-21T10:09:59;0.10;;;0.10;;
3667;SDS011;24099;47.102;15.440;2022-08-21T10:12:33;0.10;;;0.10;;
3667;SDS011;24099;47.102;15.440;2022-08-21T10:15:15;0.08;;;0.08;;
3667;SDS011;24099;47.102;15.440;2022-08-21T10:17:52;0.20;;;0.20;;
3667;SDS011;24099;47.102;15.440;2022-08-21T10:20:29;0.43;;;0.32;;
3667;SDS011;24099;47.102;15.440;2022-08-21T10:23:07;0.20;;;0.20;;
3667;SDS011;24099;47.102;15.440;2022-08-21T10:25:56;0.10;;;0.10;;
3667;SDS011;24099;47.102;15.440;2022-08-21T10:28:39;0.10;;;0.10;;
3667;SDS011;24099;47.102;15.440;2022-08-21T10:31:18;0.10;;;0.10;;
3667;SDS011;24099;47.102;15.440;2022-08-21T10:33:57;0.35;;;0.20;;
3667;SDS011;24099;47.102;15.440;2022-08-21T10:36:45;0.10;;;0.10;;
3667;SDS011;24099;47.102;15.440;2022-08-21T10:39:24;0.20;;;0.10;;
3667;SDS011;24099;47.102;15.440;2022-08-21T10:44:46;0.10;;;0.10;;
3667;SDS011;24099;47.102;15.440;2022-08-21T10:47:24;0.10;;;0.10;;
3667;SDS011;24099;47.102;15.440;2022-08-21T10:50:03;0.20;;;0.20;;
3667;SDS011;24099;47.102;15.440;2022-08-21T10:52:46;0.10;;;0.10;;
3667;SDS011;24099;47.102;15.440;2022-08-21T10:55:27;0.10;;;0.10;;
3667;SDS011;24099;47.102;15.440;2022-08-21T10:58:02;0.17;;;0.17;;
3667;SDS011;24099;47.102;15.440;2022-08-21T11:00:38;0.10;;;0.10;;
3667;SDS011;24099;47.102;15.440;2022-08-21T11:03:13;0.10;;;0.10;;
3667;SDS011;24099;47.102;15.440;2022-08-21T11:05:48;0.20;;;0.20;;
3667;SDS011;24099;47.102;15.440;2022-08-21T11:08:21;0.00;;;0.00;;
3667;SDS011;24099;47.102;15.440;2022-08-21T11:10:57;0.20;;;0.20;;
3667;SDS011;24099;47.102;15.440;2022-08-21T11:13:30;0.10;;;0.10;;
3667;SDS011;24099;47.102;15.440;2022-08-21T11:16:07;0.10;;;0.10;;
3667;SDS011;24099;47.102;15.440;2022-08-21T11:18:43;0.10;;;0.10;;
3667;SDS011;24099;47.102;15.440;2022-08-21T11:21:29;0.10;;;0.10;;
3667;SDS011;24099;47.102;15.440;2022-08-21T11:24:10;0.17;;;0.10;;
3667;SDS011;24099;47.102;15.440;2022-08-21T11:26:51;0.08;;;0.08;;
3667;SDS011;24099;47.102;15.440;2022-08-21T11:32:03;0.00;;;0.00;;
3667;SDS011;24099;47.102;15.440;2022-08-21T11:35:07;0.08;;;0.08;;
3667;SDS011;24099;47.102;15.440;2022-08-21T11:37:53;0.05;;;0.05;;
3667;SDS011;24099;47.102;15.440;2022-08-21T11:40:41;0.10;;;0.10;;
3667;SDS011;24099;47.102;15.440;2022-08-21T11:43:22;0.10;;;0.10;;
3667;SDS011;24099;47.102;15.440;2022-08-21T11:46:10;0.03;;;0.03;;
3667;SDS011;24099;47.102;15.440;2022-08-21T11:48:51;0.00;;;0.00;;
3667;SDS011;24099;47.102;15.440;2022-08-21T11:51:33;0.00;;;0.00;;
3667;SDS011;24099;47.102;15.440;2022-08-21T11:54:08;0.10;;;0.10;;
3667;SDS011;24099;47.102;15.440;2022-08-21T11:56:50;0.10;;;0.10;;
3667;SDS011;24099;47.102;15.440;2022-08-21T11:59:26;0.00;;;0.00;;
3667;SDS011;24099;47.102;15.440;2022-08-21T12:02:03;0.10;;;0.10;;
3667;SDS011;24099;47.102;15.440;2022-08-21T12:04:45;0.00;;;0.00;;
3667;SDS011;24099;47.102;15.440;2022-08-21T12:07:16;0.00;;;0.00;;
3667;SDS011;24099;47.102;15.440;2022-08-21T12:10:00;0.10;;;0.10;;
3667;SDS011;24099;47.102;15.440;2022-08-21T12:12:32;0.00;;;0.00;;
3667;SDS011;24099;47.102;15.440;2022-08-21T12:15:17;0.00;;;0.00;;
3667;SDS011;24099;47.102;15.440;2022-08-21T12:17:58;0.00;;;0.00;;
3667;SDS011;24099;47.102;15.440;2022-08-21T12:20:43;0.00;;;0.00;;
3667;SDS011;24099;47.102;15.440;2022-08-21T12:23:30;0.03;;;0.03;;
3667;SDS011;24099;47.102;15.440;2022-08-21T12:26:01;0.00;;;0.00;;
3667;SDS011;24099;47.102;15.440;2022-08-21T12:28:50;0.10;;;0.10;;
3667;SDS011;24099;47.102;15.440;2022-08-21T12:31:29;0.00;;;0.00;;
3667;SDS011;24099;47.102;15.440;2022-08-21T12:33:58;0.00;;;0.00;;
3667;SDS011;24099;47.102;15.440;2022-08-21T12:36:39;0.00;;;0.00;;
3667;SDS011;24099;47.102;15.440;2022-08-21T12:39:16;0.00;;;0.00;;
3667;SDS011;24099;47.102;15.440;2022-08-21T12:41:49;0.10;;;0.10;;
3667;SDS011;24099;47.102;15.440;2022-08-21T12:44:24;0.20;;;0.20;;
3667;SDS011;24099;47.102;15.440;2022-08-21T12:46:57;0.00;;;0.00;;
3667;SDS011;24099;47.102;15.440;2022-08-21T12:49:30;0.10;;;0.10;;
3667;SDS011;24099;47.102;15.440;2022-08-21T12:52:06;0.10;;;0.10;;
3667;SDS011;24099;47.102;15.440;2022-08-21T12:54:41;0.00;;;0.00;;
3667;SDS011;24099;47.102;15.440;2022-08-21T12:57:17;0.08;;;0.08;;
3667;SDS011;24099;47.102;15.440;2022-08-21T12:59:55;0.00;;;0.00;;
3667;SDS011;24099;47.102;15.440;2022-08-21T13:02:27;0.10;;;0.10;;
3667;SDS011;24099;47.102;15.440;2022-08-21T13:04:58;0.10;;;0.10;;
3667;SDS011;24099;47.102;15.440;2022-08-21T13:07:32;0.00;;;0.00;;
3667;SDS011;24099;47.102;15.440;2022-08-21T13:10:05;0.03;;;0.03;;
3667;SDS011;24099;47.102;15.440;2022-08-21T13:12:43;0.10;;;0.10;;
3667;SDS011;24099;47.102;15.440;2022-08-21T13:15:11;0.00;;;0.00;;
3667;SDS011;24099;47.102;15.440;2022-08-21T13:17:39;0.00;;;0.00;;
3667;SDS011;24099;47.102;15.440;2022-08-21T13:20:18;0.15;;;0.10;;
3667;SDS011;24099;47.102;15.440;2022-08-21T13:22:51;0.10;;;0.10;;
3667;SDS011;24099;47.102;15.440;2022-08-21T13:25:21;0.08;;;0.00;;
3667;SDS011;24099;47.102;15.440;2022-08-21T13:28:01;0.00;;;0.00;;
3667;SDS011;24099;47.102;15.440;2022-08-21T13:30:38;0.00;;;0.00;;
3667;SDS011;24099;47.102;15.440;2022-08-21T13:33:09;0.00;;;0.00;;
3667;SDS011;24099;47.102;15.440;2022-08-21T13:35:46;0.00;;;0.00;;
3667;SDS011;24099;47.102;15.440;2022-08-21T13:38:17;0.08;;;0.08;;
3667;SDS011;24099;47.102;15.440;2022-08-21T13:40:49;0.00;;;0.00;;
3667;SDS011;24099;47.102;15.440;2022-08-21T13:43:22;0.10;;;0.10;;
3667;SDS011;24099;47.102;15.440;2022-08-21T13:45:56;0.00;;;0.00;;
3667;SDS011;24099;47.102;15.440;2022-08-21T13:48:25;0.00;;;0.00;;
3667;SDS011;24099;47.102;15.440;2022-08-21T13:50:59;0.15;;;0.15;;
3667;SDS011;24099;47.102;15.440;2022-08-21T13:53:30;0.10;;;0.10;;
3667;SDS011;24099;47.102;15.440;2022-08-21T13:56:00;0.10;;;0.10;;
3667;SDS011;24099;47.102;15.440;2022-08-21T13:58:30;0.20;;;0.10;;
3667;SDS011;24099;47.102;15.440;2022-08-21T14:01:15;0.00;;;0.00;;
3667;SDS011;24099;47.102;15.440;2022-08-21T14:03:47;0.03;;;0.03;;
3667;SDS011;24099;47.102;15.440;2022-08-21T14:06:19;0.00;;;0.00;;
3667;SDS011;24099;47.102;15.440;2022-08-21T14:08:51;0.10;;;0.10;;
3667;SDS011;24099;47.102;15.440;2022-08-21T14:11:22;0.00;;;0.00;;
3667;SDS011;24099;47.102;15.440;2022-08-21T14:13:55;0.00;;;0.00;;
3667;SDS011;24099;47.102;15.440;2022-08-21T14:16:26;0.00;;;0.00;;
3667;SDS011;24099;47.102;15.440;2022-08-21T14:19:07;0.00;;;0.00;;
3667;SDS011;24099;47.102;15.440;2022-08-21T14:21:38;0.17;;;0.17;;
3667;SDS011;24099;47.102;15.440;2022-08-21T14:24:11;0.03;;;0.03;;
3667;SDS011;24099;47.102;15.440;2022-08-21T14:26:46;0.00;;;0.00;;
3667;SDS011;24099;47.102;15.440;2022-08-21T14:29:18;0.20;;;0.20;;
3667;SDS011;24099;47.102;15.440;2022-08-21T14:31:50;0.20;;;0.13;;
3667;SDS011;24099;47.102;15.440;2022-08-21T14:34:20;0.10;;;0.10;;
3667;SDS011;24099;47.102;15.440;2022-08-21T14:36:49;0.00;;;0.00;;
3667;SDS011;24099;47.102;15.440;2022-08-21T14:39:18;0.00;;;0.00;;
3667;SDS011;24099;47.102;15.440;2022-08-21T14:41:46;0.00;;;0.00;;
3667;SDS011;24099;47.102;15.440;2022-08-21T14:44:15;0.00;;;0.00;;
3667;SDS011;24099;47.102;15.440;2022-08-21T14:46:44;0.10;;;0.10;;
3667;SDS011;24099;47.102;15.440;2022-08-21T14:49:12;0.00;;;0.00;;
3667;SDS011;24099;47.102;15.440;2022-08-21T14:51:40;0.10;;;0.10;;
3667;SDS011;24099;47.102;15.440;2022-08-21T14:54:08;0.10;;;0.10;;
3667;SDS011;24099;47.102;15.440;2022-08-21T14:56:36;0.00;;;0.00;;
3667;SDS011;24099;47.102;15.440;2022-08-21T14:59:05;0.10;;;0.10;;
3667;SDS011;24099;47.102;15.440;2022-08-21T15:01:35;0.10;;;0.10;;
3667;SDS011;24099;47.102;15.440;2022-08-21T15:04:04;0.08;;;0.08;;
3667;SDS011;24099;47.102;15.440;2022-08-21T15:06:32;0.10;;;0.10;;
3667;SDS011;24099;47.102;15.440;2022-08-21T15:08:59;0.10;;;0.10;;
3667;SDS011;24099;47.102;15.440;2022-08-21T15:11:29;0.10;;;0.10;;
3667;SDS011;24099;47.102;15.440;2022-08-21T15:13:59;0.10;;;0.10;;
3667;SDS011;24099;47.102;15.440;2022-08-21T15:16:32;0.10;;;0.10;;
3667;SDS011;24099;47.102;15.440;2022-08-21T15:19:01;0.35;;;0.20;;
3667;SDS011;24099;47.102;15.440;2022-08-21T15:21:29;0.10;;;0.10;;
3667;SDS011;24099;47.102;15.440;2022-08-21T15:23:57;0.25;;;0.20;;
3667;SDS011;24099;47.102;15.440;2022-08-21T15:26:25;0.20;;;0.20;;